CheckWX is a tool to help pilots better visualize weather data.  It is not intended as a substitute for an official pre-flight weather briefing.

20:36:32 UTC

GMME METAR
Rabat-Salé Airport
Rabat, Morocco
Current

37 mins ago

GMME 162000Z 27007KT 8000 SCT016 SCT020 20/16 Q1015 NOSIG
Observed
Jul-16 @ 20:00 UTC
Wind
  • 270° at 7 KTS
Visibility
8,000 meters
Flight Rules
MVFR
Cloud Levels
  • Scattered at 1,600' AGL
  • Scattered at 2,000' AGL
Temperature
20°C / 68°F
Dewpoint
16°C / 61°F
Humidity
78%
Altimeter
29.97" Hg
Pressure
1014.92 hPa
Previous

1 hour ago

GMME 161930Z 28007KT 240V310 8000 SCT016 SCT020 20/16 Q1015 NOSIG
Observed
Jul-16 @ 19:30 UTC
Wind
  • 280° at 7 KTS
Visibility
8,000 meters
Flight Rules
MVFR
Cloud Levels
  • Scattered at 1,600' AGL
  • Scattered at 2,000' AGL
Temperature
20°C / 68°F
Dewpoint
16°C / 61°F
Humidity
78%
Altimeter
29.97" Hg
Pressure
1014.92 hPa
Previous

2 hours ago

GMME 161900Z 30008KT 9999 SCT016 SCT020 21/17 Q1015 NOSIG
Observed
Jul-16 @ 19:00 UTC
Wind
  • 300° at 8 KTS
Visibility
10,000+ meters
Flight Rules
VFR
Cloud Levels
  • Scattered at 1,600' AGL
  • Scattered at 2,000' AGL
Temperature
21°C / 70°F
Dewpoint
17°C / 63°F
Humidity
78%
Altimeter
29.97" Hg
Pressure
1014.92 hPa